Time;durP1;ratioP1;P1;durP2;ratioP2;P2;SDS_P1;SDS_P2;PMS_P1;PMS_P2;Temp;Humidity;BMP_temperature;BMP_pressure;BME280_temperature;BME280_humidity;BME280_pressure;Samples;Min_cycle;Max_cycle;Signal;HPM_P1;HPM_P2
2023/09/19 00:00:12;;;;;;;2.40;1.17;;;;;;;17.72;100.00;97759.69;2588659;28;20056;-86
2023/09/19 00:01:31;;;;;;;1.48;1.35;;;;;;;17.70;100.00;97747.50;2588637;28;20191;-86
2023/09/19 00:02:59;;;;;;;1.00;0.80;;;;;;;17.67;100.00;97760.97;2588556;28;20132;-86
2023/09/19 00:04:14;;;;;;;3.85;1.00;;;;;;;17.67;100.00;97758.31;2588511;28;20053;-86
2023/09/19 00:05:34;;;;;;;1.55;0.88;;;;;;;17.68;100.00;97765.28;2588285;28;20049;-87
2023/09/19 00:06:50;;;;;;;1.88;1.00;;;;;;;17.62;100.00;97754.19;2588444;28;20537;-86
2023/09/19 00:08:05;;;;;;;3.72;1.10;;;;;;;17.59;100.00;97759.66;2588520;28;20363;-86
2023/09/19 00:09:21;;;;;;;2.13;0.95;;;;;;;17.57;100.00;97750.16;2588401;28;20049;-87
2023/09/19 00:10:36;;;;;;;2.08;0.88;;;;;;;17.51;100.00;97749.59;2588532;28;20045;-87
2023/09/19 00:11:52;;;;;;;2.22;0.90;;;;;;;17.48;100.00;97746.34;2588606;28;20056;-86
2023/09/19 00:13:12;;;;;;;1.10;0.90;;;;;;;17.46;100.00;97742.91;2588512;28;20129;-87
2023/09/19 00:14:28;;;;;;;2.92;1.17;;;;;;;17.35;100.00;97749.81;2588558;28;20136;-87
2023/09/19 00:15:48;;;;;;;2.25;1.00;;;;;;;17.31;100.00;97748.28;2588339;28;20045;-87
2023/09/19 00:17:08;;;;;;;2.72;0.88;;;;;;;17.25;100.00;97755.78;2588741;28;20045;-87
2023/09/19 00:18:28;;;;;;;3.60;1.17;;;;;;;17.19;100.00;97746.50;2588254;28;20072;-86
2023/09/19 00:19:43;;;;;;;1.77;0.93;;;;;;;17.05;100.00;97750.03;2588308;28;20100;-86
2023/09/19 00:20:59;;;;;;;2.30;0.85;;;;;;;16.98;100.00;97749.56;2588262;28;20504;-86
2023/09/19 00:22:16;;;;;;;2.35;1.00;;;;;;;17.04;100.00;97757.13;2587733;28;20050;-86
2023/09/19 00:23:32;;;;;;;2.22;1.10;;;;;;;17.04;100.00;97762.44;2588433;28;20127;-86
2023/09/19 00:24:48;;;;;;;1.38;1.00;;;;;;;17.01;100.00;97762.59;2588444;28;20456;-87
2023/09/19 00:26:04;;;;;;;1.80;1.10;;;;;;;16.94;100.00;97769.22;2588644;28;20060;-87
2023/09/19 00:27:19;;;;;;;2.55;1.23;;;;;;;16.91;100.00;97766.78;2588206;28;20050;-86
2023/09/19 00:28:35;;;;;;;1.65;1.10;;;;;;;16.88;100.00;97769.59;2588423;28;20053;-87
2023/09/19 00:29:52;;;;;;;1.73;1.10;;;;;;;16.86;100.00;97767.06;2588404;28;20045;-88
2023/09/19 00:31:08;;;;;;;2.17;0.95;;;;;;;16.85;100.00;97765.38;2588481;28;20050;-87
2023/09/19 00:32:24;;;;;;;2.10;1.17;;;;;;;16.85;100.00;97775.97;2588399;28;20057;-87
2023/09/19 00:33:39;;;;;;;2.35;1.23;;;;;;;16.89;100.00;97766.00;2588540;28;20092;-88
2023/09/19 00:34:56;;;;;;;2.42;1.20;;;;;;;16.95;100.00;97766.47;2588382;28;20096;-87
2023/09/19 00:36:11;;;;;;;1.50;1.30;;;;;;;16.99;100.00;97767.16;2588126;28;20169;-87
2023/09/19 00:37:27;;;;;;;1.30;1.00;;;;;;;16.98;100.00;97754.00;2588298;28;20117;-87
2023/09/19 00:38:44;;;;;;;6.28;1.10;;;;;;;17.01;100.00;97759.13;2588249;28;20053;-87
2023/09/19 00:39:59;;;;;;;1.35;1.00;;;;;;;17.01;100.00;97757.31;2588078;28;20045;-87
2023/09/19 00:41:15;;;;;;;1.80;1.20;;;;;;;17.03;100.00;97758.06;2587555;28;20046;-87
2023/09/19 00:42:31;;;;;;;1.50;1.02;;;;;;;17.03;100.00;97755.41;2587779;28;20045;-87
2023/09/19 00:43:50;;;;;;;2.05;1.05;;;;;;;17.04;100.00;97754.50;2588301;28;20057;-87
2023/09/19 00:45:11;;;;;;;1.38;0.93;;;;;;;16.99;100.00;97756.56;2586937;28;20417;-87
2023/09/19 00:46:27;;;;;;;2.80;0.90;;;;;;;16.96;100.00;97756.75;2587823;28;20050;-87
2023/09/19 00:47:50;;;;;;;1.10;1.00;;;;;;;16.88;100.00;97764.31;2588667;28;20136;-87
2023/09/19 00:49:08;;;;;;;1.88;0.93;;;;;;;16.77;100.00;97762.38;2588203;28;20050;-87
2023/09/19 00:50:25;;;;;;;2.35;1.33;;;;;;;16.80;100.00;97764.81;2588359;28;20089;-87
2023/09/19 00:51:45;;;;;;;2.05;1.20;;;;;;;16.81;100.00;97769.16;2588261;28;20132;-87
2023/09/19 00:53:07;;;;;;;2.42;1.38;;;;;;;16.79;100.00;97761.34;2587976;28;20137;-87
2023/09/19 00:54:23;;;;;;;1.73;1.10;;;;;;;16.82;100.00;97759.44;2588255;28;20054;-87
2023/09/19 00:55:39;;;;;;;2.20;1.10;;;;;;;16.73;100.00;97769.66;2587989;28;20410;-87
2023/09/19 00:56:55;;;;;;;4.60;1.20;;;;;;;16.62;100.00;97758.91;2587388;28;20125;-87
2023/09/19 00:58:11;;;;;;;1.63;1.20;;;;;;;16.62;100.00;97753.63;2587633;28;20152;-87
2023/09/19 00:59:28;;;;;;;2.33;1.23;;;;;;;16.55;100.00;97757.63;2588072;28;20049;-88
2023/09/19 01:00:47;;;;;;;2.83;1.38;;;;;;;16.67;100.00;97752.38;2588409;28;20081;-87
2023/09/19 01:02:03;;;;;;;2.17;1.40;;;;;;;16.66;100.00;97763.06;2588014;28;20053;-87
2023/09/19 01:03:20;;;;;;;1.98;1.20;;;;;;;16.63;100.00;97758.81;2588038;28;20050;-87
2023/09/19 01:04:36;;;;;;;2.33;1.40;;;;;;;16.62;100.00;97764.19;2588317;28;20049;-86
2023/09/19 01:05:52;;;;;;;2.38;1.40;;;;;;;16.61;100.00;97765.13;2587349;28;20054;-87
2023/09/19 01:07:08;;;;;;;1.92;1.27;;;;;;;16.63;100.00;97765.91;2587674;28;20053;-88
2023/09/19 01:08:29;;;;;;;2.70;1.55;;;;;;;16.65;100.00;97764.84;2587252;28;20129;-86
2023/09/19 01:09:45;;;;;;;1.88;1.20;;;;;;;16.70;100.00;97761.91;2587574;28;20227;-87
2023/09/19 01:11:11;;;;;;;3.47;1.50;;;;;;;16.79;100.00;97760.47;2588400;28;20057;-87
2023/09/19 01:12:40;;;;;;;3.30;1.63;;;;;;;16.80;100.00;97755.09;2587941;28;20074;-87
2023/09/19 01:14:20;;;;;;;8.48;2.05;;;;;;;16.83;100.00;97754.03;2588154;28;20132;-87
2023/09/19 01:15:40;;;;;;;1.95;1.38;;;;;;;16.86;100.00;97756.50;2588000;28;20141;-87
2023/09/19 01:17:18;;;;;;;2.30;1.60;;;;;;;16.84;100.00;97760.19;2588353;28;20132;-87
2023/09/19 01:18:46;;;;;;;1.90;1.33;;;;;;;16.78;100.00;97764.06;2588429;28;20046;-87
2023/09/19 01:20:16;;;;;;;2.55;1.30;;;;;;;16.67;100.00;97756.84;2588114;28;20049;-87
2023/09/19 01:21:43;;;;;;;4.10;1.45;;;;;;;16.59;100.00;97762.63;2587914;28;20050;-87
2023/09/19 01:23:12;;;;;;;1.63;1.15;;;;;;;16.59;100.00;97767.03;2587961;28;20046;-87
2023/09/19 01:24:43;;;;;;;1.20;0.90;;;;;;;16.65;100.00;97764.84;2588356;28;20049;-87
2023/09/19 01:26:01;;;;;;;1.70;1.10;;;;;;;16.56;100.00;97762.81;2587980;28;20136;-87
2023/09/19 01:27:20;;;;;;;2.17;1.40;;;;;;;16.60;100.00;97766.09;2588208;28;20107;-87
2023/09/19 01:28:57;;;;;;;2.78;1.58;;;;;;;16.62;100.00;97767.69;2588199;28;20057;-87
2023/09/19 01:30:17;;;;;;;2.83;1.30;;;;;;;16.62;100.00;97769.47;2588122;28;20061;-87
2023/09/19 01:31:37;;;;;;;1.50;1.10;;;;;;;16.72;100.00;97772.41;2588276;28;20096;-89
2023/09/19 01:32:53;;;;;;;3.15;1.13;;;;;;;16.67;100.00;97765.59;2588113;28;20050;-87
2023/09/19 01:34:09;;;;;;;1.65;1.10;;;;;;;16.76;100.00;97765.97;2588340;28;20459;-87
2023/09/19 01:35:25;;;;;;;1.73;1.00;;;;;;;16.64;100.00;97762.31;2590113;28;20042;-87
2023/09/19 01:36:41;;;;;;;1.25;1.10;;;;;;;16.78;100.00;97764.06;2589323;28;20045;-86
2023/09/19 01:37:56;;;;;;;3.85;1.25;;;;;;;16.79;100.00;97761.34;2589895;28;20050;-87
2023/09/19 01:39:13;;;;;;;3.10;1.75;;;;;;;16.74;100.00;97757.28;2589863;28;20046;-86
2023/09/19 01:40:28;;;;;;;3.10;1.20;;;;;;;16.74;100.00;97763.41;2589728;28;20123;-86
2023/09/19 01:42:04;;;;;;;4.40;0.90;;;;;;;16.78;100.00;97759.66;2589938;28;20133;-86
2023/09/19 01:43:30;;;;;;;1.40;0.90;;;;;;;16.72;100.00;97762.66;2589937;28;20046;-87
2023/09/19 01:44:46;;;;;;;2.15;0.95;;;;;;;16.78;100.00;97761.41;2589859;28;20172;-87
2023/09/19 01:46:10;;;;;;;1.20;1.10;;;;;;;16.82;100.00;97764.72;2590097;28;20046;-87
2023/09/19 01:47:36;;;;;;;3.17;1.13;;;;;;;16.71;100.00;97763.63;2589736;28;20084;-87
2023/09/19 01:49:13;;;;;;;1.10;1.00;;;;;;;16.78;100.00;97772.00;2589903;28;20417;-86
2023/09/19 01:50:44;;;;;;;1.20;0.90;;;;;;;16.78;100.00;97764.94;2589851;28;20486;-87
2023/09/19 01:52:09;;;;;;;2.38;1.10;;;;;;;16.83;100.00;97756.69;2589846;28;20132;-87
2023/09/19 01:53:55;;;;;;;4.40;1.38;;;;;;;16.79;100.00;97763.97;2589876;28;20112;-87
2023/09/19 01:55:14;;;;;;;0.90;0.80;;;;;;;16.76;100.00;97755.38;2590004;28;20046;-88
2023/09/19 01:56:40;;;;;;;1.20;1.10;;;;;;;16.71;100.00;97755.69;2589493;28;20107;-87
2023/09/19 01:58:07;;;;;;;1.00;0.90;;;;;;;16.70;100.00;97761.09;2589751;28;20409;-87
2023/09/19 01:59:35;;;;;;;2.05;1.00;;;;;;;16.74;100.00;97763.41;2589739;28;20046;-87
2023/09/19 02:00:52;;;;;;;2.50;1.00;;;;;;;16.68;100.00;97769.09;2589614;28;20137;-87
2023/09/19 02:02:08;;;;;;;3.78;1.15;;;;;;;16.78;100.00;97764.94;2589464;28;20045;-87
2023/09/19 02:03:27;;;;;;;2.35;1.00;;;;;;;16.77;100.00;97757.09;2589739;28;20057;-87
2023/09/19 02:04:42;;;;;;;1.10;0.95;;;;;;;16.80;100.00;97765.69;2589700;28;20054;-86
2023/09/19 02:05:58;;;;;;;1.92;1.08;;;;;;;16.83;100.00;97771.72;2589833;28;20041;-87
2023/09/19 02:07:16;;;;;;;1.88;1.38;;;;;;;16.87;100.00;97773.19;2589438;28;20429;-87
2023/09/19 02:08:33;;;;;;;3.50;1.08;;;;;;;16.88;100.00;97765.19;2589953;28;20056;-87
2023/09/19 02:09:49;;;;;;;1.30;1.05;;;;;;;16.89;100.00;97769.50;2589742;28;20131;-87
2023/09/19 02:11:06;;;;;;;2.28;1.15;;;;;;;16.93;100.00;97770.16;2589386;28;20145;-87
2023/09/19 02:12:21;;;;;;;1.20;1.00;;;;;;;16.95;100.00;97766.47;2589699;28;20512;-86
2023/09/19 02:13:37;;;;;;;1.85;1.13;;;;;;;17.00;100.00;97778.59;2589595;28;20068;-87
2023/09/19 02:14:53;;;;;;;1.58;0.90;;;;;;;17.04;100.00;97766.84;2589837;28;20687;-87
2023/09/19 02:16:10;;;;;;;1.50;0.90;;;;;;;17.07;100.00;97767.50;2589480;28;20049;-87
2023/09/19 02:17:26;;;;;;;1.95;1.10;;;;;;;17.09;100.00;97770.03;2585224;28;20052;-87
2023/09/19 02:18:41;;;;;;;1.60;1.20;;;;;;;17.11;100.00;97769.94;2587002;28;20568;-87
2023/09/19 02:19:58;;;;;;;1.73;1.00;;;;;;;17.10;100.00;97769.06;2589620;28;20069;-87
2023/09/19 02:21:14;;;;;;;1.20;1.10;;;;;;;17.16;100.00;97773.13;2589420;28;20145;-87
2023/09/19 02:22:30;;;;;;;1.15;1.00;;;;;;;17.16;100.00;97762.53;2588909;28;20046;-87
2023/09/19 02:23:47;;;;;;;1.35;1.08;;;;;;;17.17;100.00;97764.22;2588997;28;20952;-87
2023/09/19 02:25:05;;;;;;;1.85;1.17;;;;;;;17.22;100.00;97762.97;2589339;28;20054;-87
2023/09/19 02:26:21;;;;;;;2.75;1.13;;;;;;;17.25;100.00;97764.59;2589684;28;20073;-87
2023/09/19 02:27:37;;;;;;;1.83;1.20;;;;;;;17.25;100.00;97771.66;2589212;28;20433;-87
2023/09/19 02:28:53;;;;;;;4.13;1.00;;;;;;;17.33;100.00;97766.72;2589586;28;20056;-88
2023/09/19 02:30:08;;;;;;;1.70;1.38;;;;;;;17.37;100.00;97770.84;2589702;28;20042;-86
2023/09/19 02:31:24;;;;;;;2.95;1.10;;;;;;;17.41;100.00;97766.22;2589271;28;20140;-87
2023/09/19 02:32:40;;;;;;;3.10;0.98;;;;;;;17.46;100.00;97764.09;2589655;28;20049;-87
2023/09/19 02:33:56;;;;;;;3.58;1.20;;;;;;;17.47;100.00;97766.66;2589515;28;20597;-87
2023/09/19 02:35:12;;;;;;;3.88;1.17;;;;;;;17.52;100.00;97766.34;2589250;28;20093;-86
2023/09/19 02:36:28;;;;;;;1.80;1.10;;;;;;;17.52;100.00;97763.69;2589194;28;20566;-86
2023/09/19 02:37:44;;;;;;;3.38;1.08;;;;;;;17.63;100.00;97765.59;2589155;28;20046;-87
2023/09/19 02:39:00;;;;;;;2.10;1.02;;;;;;;17.59;100.00;97757.00;2589469;28;20054;-86
2023/09/19 02:40:18;;;;;;;2.05;1.17;;;;;;;17.53;100.00;97762.75;2589263;28;20042;-87
2023/09/19 02:41:34;;;;;;;2.15;1.00;;;;;;;17.45;100.00;97757.97;2589317;28;20144;-87
2023/09/19 02:42:53;;;;;;;2.25;1.15;;;;;;;17.44;100.00;97768.63;2589526;28;20046;-87
2023/09/19 02:44:08;;;;;;;1.27;1.02;;;;;;;17.46;100.00;97756.16;2589291;28;20065;-87
2023/09/19 02:45:25;;;;;;;3.70;1.40;;;;;;;17.46;100.00;97757.00;2588745;28;20068;-87
2023/09/19 02:46:40;;;;;;;1.33;1.02;;;;;;;17.43;100.00;97757.22;2589611;28;20049;-87
2023/09/19 02:47:57;;;;;;;1.73;1.17;;;;;;;17.38;100.00;97755.84;2589340;28;20050;-87
2023/09/19 02:49:13;;;;;;;9.70;1.20;;;;;;;17.33;100.00;97759.66;2589221;28;20478;-87
2023/09/19 02:50:29;;;;;;;1.73;1.10;;;;;;;17.34;100.00;97760.47;2589189;28;20140;-87
2023/09/19 02:51:45;;;;;;;1.30;1.20;;;;;;;17.34;100.00;97756.06;2589341;28;20058;-87
2023/09/19 02:53:01;;;;;;;4.75;1.25;;;;;;;17.27;100.00;97751.28;2588634;28;20097;-87
2023/09/19 02:54:17;;;;;;;1.52;1.30;;;;;;;17.19;100.00;97754.44;2588531;28;20054;-87
2023/09/19 02:55:33;;;;;;;2.33;1.50;;;;;;;17.16;100.00;97751.97;2589233;28;20069;-87
2023/09/19 02:56:49;;;;;;;5.32;2.00;;;;;;;17.15;100.00;97760.84;2589152;28;20041;-87
2023/09/19 02:58:07;;;;;;;1.92;1.23;;;;;;;17.04;100.00;97758.91;2589131;28;20042;-87
2023/09/19 02:59:24;;;;;;;3.30;1.48;;;;;;;17.01;100.00;97759.97;2589338;28;20054;-87
2023/09/19 03:00:47;;;;;;;2.47;1.88;;;;;;;16.99;100.00;97758.34;2589316;28;20166;-88
2023/09/19 03:02:04;;;;;;;2.03;1.42;;;;;;;16.94;100.00;97750.72;2588918;28;20052;-87
2023/09/19 03:03:20;;;;;;;2.25;1.38;;;;;;;16.93;100.00;97746.38;2589487;28;20596;-87
2023/09/19 03:04:35;;;;;;;1.90;1.30;;;;;;;16.91;100.00;97753.56;2589233;28;20600;-87
2023/09/19 03:05:53;;;;;;;3.15;1.30;;;;;;;16.90;100.00;97765.91;2589111;28;20128;-86
2023/09/19 03:07:11;;;;;;;2.00;1.40;;;;;;;16.94;100.00;97753.34;2588922;28;20050;-86
2023/09/19 03:08:26;;;;;;;2.65;1.30;;;;;;;16.91;100.00;97764.13;2589223;28;20077;-86
2023/09/19 03:09:42;;;;;;;2.20;1.40;;;;;;;16.86;100.00;97759.16;2589240;28;20057;-87
2023/09/19 03:10:58;;;;;;;2.28;1.33;;;;;;;16.82;100.00;97762.09;2589097;28;20107;-87
2023/09/19 03:12:15;;;;;;;1.80;1.30;;;;;;;16.84;100.00;97758.41;2588862;28;20046;-87
2023/09/19 03:13:32;;;;;;;2.85;1.30;;;;;;;16.79;100.00;97758.69;2589260;28;20050;-87
2023/09/19 03:14:48;;;;;;;1.58;1.40;;;;;;;16.82;100.00;97762.91;2588689;28;20041;-87
2023/09/19 03:16:07;;;;;;;2.58;1.58;;;;;;;16.84;100.00;97752.25;2588945;28;20160;-87
2023/09/19 03:17:22;;;;;;;2.17;1.30;;;;;;;16.80;100.00;97755.09;2589221;28;20541;-86
2023/09/19 03:18:38;;;;;;;2.97;1.30;;;;;;;16.81;100.00;97758.56;2588800;28;20049;-87
2023/09/19 03:19:53;;;;;;;1.73;1.38;;;;;;;16.80;100.00;97759.53;2589175;28;20060;-87
2023/09/19 03:21:09;;;;;;;2.45;1.50;;;;;;;16.85;100.00;97761.88;2588890;28;20081;-87
2023/09/19 03:22:26;;;;;;;2.35;1.40;;;;;;;16.83;100.00;97763.78;2588888;28;20061;-86
2023/09/19 03:23:44;;;;;;;3.83;1.52;;;;;;;16.82;100.00;97767.38;2589014;28;20142;-87
2023/09/19 03:25:00;;;;;;;1.80;1.23;;;;;;;16.78;100.00;97758.78;2588818;28;20124;-87
2023/09/19 03:26:16;;;;;;;2.25;1.50;;;;;;;16.78;100.00;97770.22;2588167;28;20064;-87
2023/09/19 03:27:32;;;;;;;1.90;1.35;;;;;;;16.77;100.00;97759.72;2588543;28;20042;-86
2023/09/19 03:28:47;;;;;;;3.15;1.38;;;;;;;16.76;100.00;97764.19;2588774;28;20461;-87
2023/09/19 03:30:08;;;;;;;2.67;1.42;;;;;;;16.76;100.00;97764.19;2588912;28;20525;-87
2023/09/19 03:31:23;;;;;;;2.00;1.40;;;;;;;16.76;100.00;97765.97;2588779;28;20092;-87
2023/09/19 03:32:47;;;;;;;5.40;2.17;;;;;;;16.78;100.00;97770.22;2588796;28;20049;-87
2023/09/19 03:34:03;;;;;;;3.58;1.60;;;;;;;16.77;100.00;97763.25;2589105;28;20049;-87
2023/09/19 03:35:19;;;;;;;2.03;1.35;;;;;;;16.87;100.00;97768.78;2588553;28;20124;-87
2023/09/19 03:36:35;;;;;;;1.30;1.10;;;;;;;16.86;100.00;97766.22;2587880;28;20053;-87
2023/09/19 03:37:52;;;;;;;2.78;1.40;;;;;;;16.82;100.00;97772.66;2581971;28;20452;-86
2023/09/19 03:39:08;;;;;;;1.60;1.33;;;;;;;16.85;100.00;97775.09;2588012;28;20054;-87
2023/09/19 03:40:25;;;;;;;2.30;1.40;;;;;;;16.83;100.00;97766.41;2588833;28;20057;-86
2023/09/19 03:41:40;;;;;;;2.28;1.60;;;;;;;16.85;100.00;97772.44;2588579;28;20069;-87
2023/09/19 03:42:56;;;;;;;2.10;1.50;;;;;;;16.86;100.00;97774.16;2588722;28;20042;-87
2023/09/19 03:44:11;;;;;;;1.73;1.30;;;;;;;16.87;100.00;97779.34;2588670;28;20394;-86
2023/09/19 03:45:27;;;;;;;2.08;1.20;;;;;;;16.83;100.00;97777.81;2588237;28;20108;-87
2023/09/19 03:46:43;;;;;;;2.75;1.50;;;;;;;16.81;100.00;97779.72;2588782;28;20065;-87
2023/09/19 03:47:58;;;;;;;2.35;1.35;;;;;;;16.67;100.00;97778.81;2588877;28;20394;-87
2023/09/19 03:49:14;;;;;;;1.92;1.30;;;;;;;16.70;100.00;97776.94;2588872;28;20119;-86
2023/09/19 03:50:29;;;;;;;2.67;1.63;;;;;;;16.70;100.00;97782.22;2588945;28;20065;-87
2023/09/19 03:51:45;;;;;;;2.25;1.48;;;;;;;16.61;100.00;97776.56;2588722;28;20045;-86
2023/09/19 03:53:00;;;;;;;1.48;1.27;;;;;;;16.57;100.00;97777.72;2588764;28;20967;-87
2023/09/19 03:54:16;;;;;;;3.10;1.60;;;;;;;16.61;100.00;97773.06;2588868;28;20099;-87
2023/09/19 03:55:35;;;;;;;5.68;1.80;;;;;;;16.62;100.00;97769.47;2588344;28;20077;-86
2023/09/19 03:56:50;;;;;;;3.90;1.60;;;;;;;16.57;100.00;97772.44;2587741;28;20050;-87
2023/09/19 03:58:06;;;;;;;3.58;1.40;;;;;;;16.55;100.00;97778.75;2588754;28;20501;-87
2023/09/19 03:59:22;;;;;;;1.35;1.25;;;;;;;16.52;100.00;97778.00;2588408;28;20064;-87
2023/09/19 04:00:37;;;;;;;1.50;1.38;;;;;;;16.52;100.00;97775.38;2588229;28;20049;-88
2023/09/19 04:01:56;;;;;;;4.30;1.40;;;;;;;16.55;100.00;97778.75;2588518;28;20056;-88
2023/09/19 04:03:19;;;;;;;1.92;1.52;;;;;;;16.58;100.00;97778.56;2588530;28;20660;-87
2023/09/19 04:04:34;;;;;;;2.13;1.35;;;;;;;16.60;100.00;97774.00;2589177;28;20128;-87
2023/09/19 04:05:50;;;;;;;2.60;1.50;;;;;;;16.58;100.00;97779.41;2588396;28;20137;-87
2023/09/19 04:07:06;;;;;;;2.25;1.42;;;;;;;16.52;100.00;97780.66;2588720;28;20053;-86
2023/09/19 04:08:21;;;;;;;3.47;1.73;;;;;;;16.54;100.00;97785.81;2588576;28;20050;-87
2023/09/19 04:09:36;;;;;;;2.55;1.60;;;;;;;16.53;100.00;97789.41;2588513;28;20050;-87
2023/09/19 04:10:52;;;;;;;2.55;1.50;;;;;;;16.55;100.00;97784.88;2588411;28;20045;-87
2023/09/19 04:12:11;;;;;;;2.40;1.75;;;;;;;16.56;100.00;97791.03;2588285;28;20069;-87
2023/09/19 04:13:26;;;;;;;2.53;1.80;;;;;;;16.65;100.00;97791.28;2588572;28;20057;-87
2023/09/19 04:14:42;;;;;;;2.50;1.58;;;;;;;16.71;100.00;97792.69;2587796;28;20049;-87
2023/09/19 04:15:58;;;;;;;2.60;1.80;;;;;;;16.80;100.00;97799.19;2587821;28;20060;-86
2023/09/19 04:17:13;;;;;;;4.07;1.70;;;;;;;16.79;100.00;97793.06;2588475;28;20050;-86
2023/09/19 04:18:30;;;;;;;2.85;1.73;;;;;;;16.79;100.00;97801.00;2588669;28;20053;-86
2023/09/19 04:19:46;;;;;;;2.42;1.60;;;;;;;16.84;100.00;97795.41;2588388;28;20399;-87
2023/09/19 04:21:03;;;;;;;4.43;1.58;;;;;;;16.83;100.00;97795.50;2588587;28;20054;-87
2023/09/19 04:22:19;;;;;;;2.33;1.65;;;;;;;16.84;100.00;97799.84;2588499;28;20049;-87
2023/09/19 04:23:34;;;;;;;2.67;1.85;;;;;;;16.84;100.00;97800.69;2588514;28;20053;-87
2023/09/19 04:24:50;;;;;;;3.00;1.50;;;;;;;16.88;100.00;97799.53;2588471;28;20401;-87
2023/09/19 04:26:06;;;;;;;3.55;1.70;;;;;;;16.90;100.00;97795.00;2588197;28;20476;-87
2023/09/19 04:27:21;;;;;;;1.70;1.25;;;;;;;16.83;100.00;97795.50;2588474;28;20065;-87
2023/09/19 04:28:38;;;;;;;4.00;1.70;;;;;;;16.85;100.00;97801.53;2588385;28;20133;-87
2023/09/19 04:29:58;;;;;;;2.00;1.60;;;;;;;16.88;100.00;97807.47;2588138;28;20509;-87
2023/09/19 04:31:14;;;;;;;2.67;1.58;;;;;;;16.82;100.00;97804.38;2588249;28;20137;-87
2023/09/19 04:32:32;;;;;;;2.88;1.80;;;;;;;16.79;100.00;97811.56;2587530;28;20068;-87
2023/09/19 04:33:47;;;;;;;4.82;1.92;;;;;;;16.76;100.00;97800.31;2588565;28;20628;-87
2023/09/19 04:35:06;;;;;;;3.83;1.70;;;;;;;16.78;100.00;97807.22;2590461;28;20141;-87
2023/09/19 04:36:22;;;;;;;2.83;1.50;;;;;;;16.74;100.00;97811.00;2588289;28;20229;-87
2023/09/19 04:37:39;;;;;;;2.35;1.50;;;;;;;16.75;100.00;97811.84;2588430;28;20157;-87
2023/09/19 04:38:54;;;;;;;3.45;2.00;;;;;;;16.73;100.00;97811.09;2588447;28;20053;-87
2023/09/19 04:40:19;;;;;;;2.25;1.70;;;;;;;16.75;100.00;97812.69;2588046;28;20045;-87
2023/09/19 04:41:36;;;;;;;3.38;1.80;;;;;;;16.80;100.00;97818.53;2587956;28;20516;-87
2023/09/19 04:42:59;;;;;;;2.17;1.70;;;;;;;16.77;100.00;97818.75;2588033;28;20473;-87
2023/09/19 04:44:15;;;;;;;1.80;1.50;;;;;;;16.83;100.00;97821.94;2588050;28;20088;-88
2023/09/19 04:45:31;;;;;;;2.95;1.67;;;;;;;16.73;100.00;97821.69;2587028;28;20105;-87
2023/09/19 04:46:47;;;;;;;2.63;1.55;;;;;;;16.66;100.00;97834.44;2587585;28;20142;-87
2023/09/19 04:48:03;;;;;;;2.22;1.60;;;;;;;16.66;100.00;97829.97;2586704;28;20049;-87
2023/09/19 04:49:18;;;;;;;2.00;1.70;;;;;;;16.63;100.00;97832.00;2587022;28;20042;-87
2023/09/19 04:50:34;;;;;;;1.67;1.45;;;;;;;16.59;100.00;97828.69;2587009;28;20045;-87
2023/09/19 04:51:50;;;;;;;3.10;1.85;;;;;;;16.60;100.00;97835.66;2587483;28;20147;-87
2023/09/19 04:53:06;;;;;;;7.18;1.90;;;;;;;16.63;100.00;97837.28;2588014;28;20508;-87
2023/09/19 04:54:23;;;;;;;3.90;1.73;;;;;;;16.61;100.00;97839.13;2587958;28;20049;-87
2023/09/19 04:55:38;;;;;;;2.40;1.60;;;;;;;16.60;100.00;97833.03;2588146;28;20045;-87
2023/09/19 04:56:54;;;;;;;3.30;1.60;;;;;;;16.59;100.00;97843.66;2587932;28;20046;-87
2023/09/19 04:58:09;;;;;;;2.10;1.67;;;;;;;16.62;100.00;97844.34;2588279;28;20063;-87
2023/09/19 04:59:25;;;;;;;2.67;1.70;;;;;;;16.62;100.00;97840.84;2586534;28;20057;-87
2023/09/19 05:00:41;;;;;;;1.80;1.55;;;;;;;16.64;100.00;97837.16;2587141;28;20053;-87
2023/09/19 05:01:56;;;;;;;3.25;2.00;;;;;;;16.62;100.00;97843.47;2588268;28;20414;-86
2023/09/19 05:03:12;;;;;;;3.05;1.73;;;;;;;16.61;100.00;97841.78;2588103;28;20041;-87
2023/09/19 05:04:28;;;;;;;3.38;1.80;;;;;;;16.63;100.00;97845.19;2588119;28;20081;-87
2023/09/19 05:05:44;;;;;;;3.08;1.90;;;;;;;16.62;100.00;97846.13;2587855;28;20061;-87
2023/09/19 05:07:01;;;;;;;3.20;1.80;;;;;;;16.63;100.00;97847.84;2588032;28;20049;-87
2023/09/19 05:08:16;;;;;;;3.22;1.70;;;;;;;16.59;100.00;97852.47;2586136;28;20092;-87
2023/09/19 05:09:34;;;;;;;3.88;2.10;;;;;;;16.56;100.00;97851.81;2587594;28;20045;-87
2023/09/19 05:10:50;;;;;;;5.43;1.95;;;;;;;16.59;100.00;97854.25;2588587;28;20478;-87
2023/09/19 05:12:06;;;;;;;2.90;1.83;;;;;;;16.57;100.00;97858.78;2590068;28;20069;-87
2023/09/19 05:13:23;;;;;;;1.95;1.52;;;;;;;16.56;100.00;97862.38;2590181;28;20052;-87
2023/09/19 05:14:40;;;;;;;2.20;1.70;;;;;;;16.57;100.00;97861.44;2589202;28;20137;-86
2023/09/19 05:16:02;;;;;;;3.50;2.50;;;;;;;16.60;100.00;97862.09;2589587;28;20046;-87
2023/09/19 05:17:17;;;;;;;4.65;1.80;;;;;;;16.64;100.00;97860.13;2589842;28;20667;-87
2023/09/19 05:18:33;;;;;;;6.03;1.92;;;;;;;16.73;100.00;97866.63;2590424;28;20096;-87
2023/09/19 05:19:48;;;;;;;3.45;1.90;;;;;;;16.72;100.00;97865.75;2589109;28;20045;-87
2023/09/19 05:21:04;;;;;;;5.20;1.83;;;;;;;16.78;100.00;97865.38;2589876;28;20050;-87
2023/09/19 05:22:20;;;;;;;4.28;1.60;;;;;;;16.80;100.00;97873.19;2590260;28;20080;-88
2023/09/19 05:23:36;;;;;;;2.15;1.60;;;;;;;16.85;100.00;97872.91;2589829;28;21116;-87
2023/09/19 05:24:52;;;;;;;2.35;1.50;;;;;;;16.90;100.00;97869.03;2590268;28;20120;-87
2023/09/19 05:26:08;;;;;;;3.17;1.77;;;;;;;16.88;100.00;97875.34;2590077;28;20046;-87
2023/09/19 05:27:23;;;;;;;2.95;1.77;;;;;;;16.92;100.00;97884.81;2589952;28;20058;-87
2023/09/19 05:28:39;;;;;;;2.58;1.90;;;;;;;16.88;100.00;97878.88;2590216;28;20049;-87
2023/09/19 05:29:55;;;;;;;4.03;1.85;;;;;;;17.03;100.00;97881.50;2590124;28;20058;-87
2023/09/19 05:31:11;;;;;;;3.35;1.80;;;;;;;17.05;100.00;97885.78;2589989;28;20045;-87
2023/09/19 05:32:26;;;;;;;1.98;1.73;;;;;;;17.15;100.00;97885.16;2590096;28;20464;-87
2023/09/19 05:33:42;;;;;;;1.85;1.58;;;;;;;17.23;100.00;97889.00;2589903;28;20045;-87
2023/09/19 05:34:58;;;;;;;3.38;1.90;;;;;;;17.17;100.00;97891.19;2589366;28;20128;-87
2023/09/19 05:36:15;;;;;;;1.95;1.50;;;;;;;17.20;100.00;97888.38;2589404;28;20080;-87
2023/09/19 05:37:31;;;;;;;2.33;1.60;;;;;;;17.23;100.00;97889.00;2589108;28;20132;-86
2023/09/19 05:38:49;;;;;;;4.68;1.60;;;;;;;17.31;100.00;97887.69;2589687;28;20465;-87
2023/09/19 05:40:07;;;;;;;1.95;1.40;;;;;;;17.35;100.00;97884.75;2590055;28;20616;-87
2023/09/19 05:41:23;;;;;;;3.63;1.60;;;;;;;17.33;100.00;97884.00;2589978;28;20050;-87
2023/09/19 05:42:39;;;;;;;2.35;1.65;;;;;;;17.27;100.00;97887.03;2590053;28;20069;-86
2023/09/19 05:43:54;;;;;;;1.98;1.45;;;;;;;17.29;100.00;97885.13;2589804;28;20049;-86
2023/09/19 05:45:14;;;;;;;2.53;1.80;;;;;;;17.27;100.00;97892.31;2588984;28;20556;-87
2023/09/19 05:46:29;;;;;;;1.60;1.38;;;;;;;17.31;100.00;97888.50;2589892;28;20041;-94
2023/09/19 05:47:45;;;;;;;2.97;1.45;;;;;;;17.20;100.00;97885.75;2594727;28;20579;-85
2023/09/19 05:49:01;;;;;;;2.83;1.70;;;;;;;17.20;100.00;97889.22;2589854;28;20060;-86
2023/09/19 05:50:18;;;;;;;2.85;1.80;;;;;;;17.25;100.00;97888.91;2589749;28;20512;-86
2023/09/19 05:51:35;;;;;;;2.42;1.85;;;;;;;17.21;100.00;97890.06;2589957;28;20053;-86
2023/09/19 05:52:55;;;;;;;3.60;1.77;;;;;;;17.27;100.00;97896.78;2589913;28;20054;-86
2023/09/19 05:54:11;;;;;;;2.95;1.67;;;;;;;17.28;100.00;97893.19;2589618;28;20515;-86
2023/09/19 05:55:28;;;;;;;3.15;1.90;;;;;;;17.22;100.00;97891.78;2589994;28;20049;-86
2023/09/19 05:56:46;;;;;;;2.95;1.67;;;;;;;17.30;100.00;97893.91;2589813;28;20131;-86
2023/09/19 05:58:03;;;;;;;2.83;1.67;;;;;;;17.35;100.00;97900.63;2588334;28;20077;-86
2023/09/19 05:59:19;;;;;;;2.03;1.58;;;;;;;17.41;100.00;97893.22;2582879;28;20062;-86
2023/09/19 06:00:35;;;;;;;5.28;1.70;;;;;;;17.33;100.00;97896.38;2588858;28;20129;-86